createdAt,value
2018-07-31T00:00:33.593Z,1014.19
2018-07-31T00:01:33.538Z,1014.19
2018-07-31T00:02:34.467Z,1014.18
2018-07-31T00:03:33.589Z,1014.20
2018-07-31T00:04:33.477Z,1014.19
2018-07-31T00:05:33.528Z,1014.18
2018-07-31T00:06:33.481Z,1014.19
2018-07-31T00:07:33.410Z,1014.21
2018-07-31T00:08:33.969Z,1014.19
2018-07-31T00:09:33.420Z,1014.21
2018-07-31T00:10:34.038Z,1014.19
2018-07-31T00:11:33.373Z,1014.19
2018-07-31T00:12:33.320Z,1014.22
2018-07-31T00:13:33.975Z,1014.23
2018-07-31T00:14:33.284Z,1014.23
2018-07-31T00:15:33.969Z,1014.20
2018-07-31T00:16:33.274Z,1014.19
2018-07-31T00:17:33.205Z,1014.19
2018-07-31T00:18:33.185Z,1014.17
2018-07-31T00:19:33.162Z,1014.22
2018-07-31T00:20:33.973Z,1014.18
2018-07-31T00:21:33.174Z,1014.19
2018-07-31T00:22:33.101Z,1014.19
2018-07-31T00:23:33.531Z,1014.22
2018-07-31T00:24:33.060Z,1014.21
2018-07-31T00:25:33.045Z,1014.26
2018-07-31T00:26:33.973Z,1014.25
2018-07-31T00:27:33.146Z,1014.22
2018-07-31T00:28:32.983Z,1014.21
2018-07-31T00:29:33.480Z,1014.18
2018-07-31T00:30:32.937Z,1014.22
2018-07-31T00:31:32.916Z,1014.21
2018-07-31T00:32:32.947Z,1014.16
2018-07-31T00:33:33.477Z,1014.17
2018-07-31T00:34:32.856Z,1014.19
2018-07-31T00:35:32.838Z,1014.16
2018-07-31T00:36:33.035Z,1014.15
2018-07-31T00:37:32.845Z,1014.17
2018-07-31T00:38:32.774Z,1014.14
2018-07-31T00:39:32.800Z,1014.14
2018-07-31T00:40:33.479Z,1014.09
2018-07-31T00:41:32.712Z,1014.12
2018-07-31T00:42:33.488Z,1014.08
2018-07-31T00:43:32.679Z,1014.08
2018-07-31T00:44:32.709Z,1014.04
2018-07-31T00:45:33.479Z,1014.04
2018-07-31T00:46:32.613Z,1014.07
2018-07-31T00:47:33.499Z,1014.02
2018-07-31T00:48:32.571Z,1014.02
2018-07-31T00:49:32.597Z,1014.02
2018-07-31T00:50:33.488Z,1013.99
2018-07-31T00:51:32.510Z,1014.05
2018-07-31T00:52:32.485Z,1014.00
2018-07-31T00:53:32.536Z,1014.00
2018-07-31T00:54:32.445Z,1013.99
2018-07-31T00:55:32.425Z,1013.96
2018-07-31T00:56:32.987Z,1013.96
2018-07-31T00:57:32.382Z,1014.00
2018-07-31T00:58:32.407Z,1013.96
2018-07-31T00:59:32.544Z,1013.99
2018-07-31T01:00:32.317Z,1013.96
2018-07-31T01:01:32.300Z,1013.95
2018-07-31T01:02:32.982Z,1013.93
2018-07-31T01:03:32.305Z,1013.95
2018-07-31T01:04:32.237Z,1013.95
2018-07-31T01:05:32.986Z,1013.98
2018-07-31T01:06:32.197Z,1013.92
2018-07-31T01:07:32.182Z,1013.97
2018-07-31T01:08:32.187Z,1013.91
2018-07-31T01:09:32.987Z,1013.91
2018-07-31T01:10:32.111Z,1013.89
2018-07-31T01:11:32.987Z,1013.90
2018-07-31T01:12:32.095Z,1013.85
2018-07-31T01:13:32.984Z,1013.87
2018-07-31T01:14:32.025Z,1013.87
2018-07-31T01:15:32.989Z,1013.85
2018-07-31T01:16:31.986Z,1013.90
2018-07-31T01:17:32.017Z,1013.86
2018-07-31T01:18:32.044Z,1013.86
2018-07-31T01:19:31.927Z,1013.83
2018-07-31T01:20:32.049Z,1013.83
2018-07-31T01:21:31.878Z,1013.84
2018-07-31T01:22:32.494Z,1013.86
2018-07-31T01:23:31.835Z,1013.87
2018-07-31T01:24:31.819Z,1013.89
2018-07-31T01:25:32.043Z,1013.84
2018-07-31T01:26:31.790Z,1013.87
2018-07-31T01:27:31.759Z,1013.86
2018-07-31T01:28:32.493Z,1013.82
2018-07-31T01:29:31.709Z,1013.83
2018-07-31T01:30:32.024Z,1013.82
2018-07-31T01:31:31.666Z,1013.82
2018-07-31T01:32:32.051Z,1013.85
2018-07-31T01:33:31.628Z,1013.86
2018-07-31T01:34:31.602Z,1013.85
2018-07-31T01:35:32.057Z,1013.84
2018-07-31T01:36:31.569Z,1013.80
2018-07-31T01:37:31.542Z,1013.84
2018-07-31T01:38:31.523Z,1013.85
2018-07-31T01:39:32.493Z,1013.78
2018-07-31T01:40:31.526Z,1013.84
2018-07-31T01:41:31.465Z,1013.82
2018-07-31T01:42:31.435Z,1013.75
2018-07-31T01:43:31.992Z,1013.79
2018-07-31T01:44:31.433Z,1013.80
2018-07-31T01:45:31.549Z,1013.78
2018-07-31T01:46:31.355Z,1013.76
2018-07-31T01:47:31.995Z,1013.77
2018-07-31T01:48:31.369Z,1013.79
2018-07-31T01:49:31.288Z,1013.82
2018-07-31T01:50:31.270Z,1013.76
2018-07-31T01:51:31.244Z,1013.78
2018-07-31T01:52:32.000Z,1013.77
2018-07-31T01:53:31.252Z,1013.77
2018-07-31T01:54:31.995Z,1013.71
2018-07-31T01:55:31.205Z,1013.73
2018-07-31T01:56:31.141Z,1013.73
2018-07-31T01:57:32.006Z,1013.72
2018-07-31T01:58:31.101Z,1013.75
2018-07-31T01:59:31.127Z,1013.74
2018-07-31T02:00:31.057Z,1013.75
2018-07-31T02:01:32.006Z,1013.75
2018-07-31T02:02:31.012Z,1013.75
2018-07-31T02:03:30.993Z,1013.75
2018-07-31T02:04:31.052Z,1013.74
2018-07-31T02:05:30.952Z,1013.77
2018-07-31T02:06:31.499Z,1013.73
2018-07-31T02:07:30.911Z,1013.71
2018-07-31T02:08:30.887Z,1013.69
2018-07-31T02:09:30.907Z,1013.70
2018-07-31T02:10:30.892Z,1013.70
2018-07-31T02:11:30.824Z,1013.69
2018-07-31T02:12:30.802Z,1013.69
2018-07-31T02:13:30.782Z,1013.65
2018-07-31T02:14:30.795Z,1013.68
2018-07-31T02:15:30.793Z,1013.66
2018-07-31T02:16:30.714Z,1013.66
2018-07-31T02:17:30.698Z,1013.60
2018-07-31T02:18:30.677Z,1013.63
2018-07-31T02:19:30.651Z,1013.62
2018-07-31T02:20:30.683Z,1013.58
2018-07-31T02:21:30.608Z,1013.57
2018-07-31T02:22:30.589Z,1013.58
2018-07-31T02:23:30.566Z,1013.54
2018-07-31T02:24:30.548Z,1013.53
2018-07-31T02:25:30.567Z,1013.55
2018-07-31T02:26:30.503Z,1013.55
2018-07-31T02:27:30.484Z,1013.52
2018-07-31T02:28:30.574Z,1013.52
2018-07-31T02:29:30.441Z,1013.52
2018-07-31T02:30:30.418Z,1013.52
2018-07-31T02:31:30.449Z,1013.51
2018-07-31T02:32:30.375Z,1013.49
2018-07-31T02:33:30.350Z,1013.50
2018-07-31T02:34:30.330Z,1013.48
2018-07-31T02:35:30.307Z,1013.48
2018-07-31T02:36:30.344Z,1013.47
2018-07-31T02:37:30.267Z,1013.45
2018-07-31T02:38:30.246Z,1013.45
2018-07-31T02:39:30.227Z,1013.44
2018-07-31T02:40:30.207Z,1013.42
2018-07-31T02:41:30.223Z,1013.44
2018-07-31T02:42:30.216Z,1013.43
2018-07-31T02:43:30.144Z,1013.44
2018-07-31T02:44:30.113Z,1013.43
2018-07-31T02:45:30.092Z,1013.48
2018-07-31T02:46:30.077Z,1013.43
2018-07-31T02:47:30.103Z,1013.44
2018-07-31T02:48:30.030Z,1013.43
2018-07-31T02:49:30.012Z,1013.43
2018-07-31T02:50:29.984Z,1013.45
2018-07-31T02:51:29.969Z,1013.46
2018-07-31T02:52:30.005Z,1013.45
2018-07-31T02:53:29.920Z,1013.49
2018-07-31T02:54:29.907Z,1013.45
2018-07-31T02:55:29.878Z,1013.50
2018-07-31T02:56:29.902Z,1013.55
2018-07-31T02:57:29.887Z,1013.55
2018-07-31T02:58:29.813Z,1013.54
2018-07-31T02:59:29.797Z,1013.54
2018-07-31T03:00:29.777Z,1013.55
2018-07-31T03:01:29.752Z,1013.58
2018-07-31T03:02:29.772Z,1013.59
2018-07-31T03:03:29.706Z,1013.58
2018-07-31T03:04:29.731Z,1013.53
2018-07-31T03:05:29.664Z,1013.57
2018-07-31T03:06:29.645Z,1013.54
2018-07-31T03:07:29.624Z,1013.55
2018-07-31T03:08:29.598Z,1013.55
2018-07-31T03:09:29.613Z,1013.58
2018-07-31T03:10:29.553Z,1013.54
2018-07-31T03:11:29.535Z,1013.58
2018-07-31T03:12:29.515Z,1013.56
2018-07-31T03:13:29.491Z,1013.58
2018-07-31T03:14:29.514Z,1013.57
2018-07-31T03:15:29.469Z,1013.60
2018-07-31T03:16:30.028Z,1013.61
2018-07-31T03:17:29.410Z,1013.62
2018-07-31T03:18:29.381Z,1013.57
2018-07-31T03:19:29.409Z,1013.58
2018-07-31T03:20:29.338Z,1013.63
2018-07-31T03:21:29.364Z,1013.65
2018-07-31T03:22:29.292Z,1013.63
2018-07-31T03:23:29.270Z,1013.67
2018-07-31T03:24:30.024Z,1013.68
2018-07-31T03:25:29.277Z,1013.67
2018-07-31T03:26:29.228Z,1013.67
2018-07-31T03:27:29.186Z,1013.65
2018-07-31T03:28:30.025Z,1013.66
2018-07-31T03:29:29.140Z,1013.69
2018-07-31T03:30:29.167Z,1013.69
2018-07-31T03:31:29.142Z,1013.68
2018-07-31T03:32:29.074Z,1013.66
2018-07-31T03:33:29.100Z,1013.65
2018-07-31T03:34:29.037Z,1013.67
2018-07-31T03:35:29.009Z,1013.64
2018-07-31T03:36:28.993Z,1013.66
2018-07-31T03:37:29.012Z,1013.66
2018-07-31T03:38:28.946Z,1013.68
2018-07-31T03:39:28.922Z,1013.69
2018-07-31T03:40:29.528Z,1013.70
2018-07-31T03:41:28.936Z,1013.70
2018-07-31T03:42:28.861Z,1013.72
2018-07-31T03:43:28.842Z,1013.71
2018-07-31T03:44:28.818Z,1013.72
2018-07-31T03:45:28.795Z,1013.70
2018-07-31T03:46:28.856Z,1013.69
2018-07-31T03:47:28.762Z,1013.74
2018-07-31T03:48:28.728Z,1013.68
2018-07-31T03:49:28.707Z,1013.71
2018-07-31T03:50:28.691Z,1013.68
2018-07-31T03:51:29.082Z,1013.67
2018-07-31T03:52:28.642Z,1013.68
2018-07-31T03:53:28.624Z,1013.64
2018-07-31T03:54:28.608Z,1013.66
2018-07-31T03:55:28.642Z,1013.68
2018-07-31T03:56:28.556Z,1013.69
2018-07-31T03:57:28.535Z,1013.66
2018-07-31T03:58:28.558Z,1013.64
2018-07-31T03:59:28.495Z,1013.67
2018-07-31T04:00:28.466Z,1013.64
2018-07-31T04:01:28.454Z,1013.68
2018-07-31T04:02:28.425Z,1013.68
2018-07-31T04:03:28.457Z,1013.66
2018-07-31T04:04:28.378Z,1013.67
2018-07-31T04:05:28.416Z,1013.66
2018-07-31T04:06:28.337Z,1013.63
2018-07-31T04:07:28.315Z,1013.69
2018-07-31T04:08:28.342Z,1013.71
2018-07-31T04:09:28.281Z,1013.71
2018-07-31T04:10:28.297Z,1013.70
2018-07-31T04:11:28.275Z,1013.67
2018-07-31T04:12:28.213Z,1013.67
2018-07-31T04:13:28.190Z,1013.68
2018-07-31T04:14:28.167Z,1013.67
2018-07-31T04:15:28.183Z,1013.66
2018-07-31T04:16:28.120Z,1013.62
2018-07-31T04:17:28.245Z,1013.62
2018-07-31T04:18:28.077Z,1013.63
2018-07-31T04:19:28.060Z,1013.64
2018-07-31T04:20:28.037Z,1013.63
2018-07-31T04:21:28.020Z,1013.63
2018-07-31T04:22:28.039Z,1013.64
2018-07-31T04:23:27.975Z,1013.59
2018-07-31T04:24:27.951Z,1013.60
2018-07-31T04:25:27.932Z,1013.57
2018-07-31T04:26:27.906Z,1013.58
2018-07-31T04:27:28.104Z,1013.56
2018-07-31T04:28:27.870Z,1013.57
2018-07-31T04:29:27.850Z,1013.58
2018-07-31T04:30:27.823Z,1013.58
2018-07-31T04:31:27.828Z,1013.59
2018-07-31T04:32:27.838Z,1013.61
2018-07-31T04:33:27.809Z,1013.57
2018-07-31T04:34:27.741Z,1013.59
2018-07-31T04:35:27.760Z,1013.61
2018-07-31T04:36:27.699Z,1013.56
2018-07-31T04:37:27.675Z,1013.56
2018-07-31T04:38:27.706Z,1013.55
2018-07-31T04:39:27.632Z,1013.55
2018-07-31T04:40:27.653Z,1013.55
2018-07-31T04:41:27.595Z,1013.58
2018-07-31T04:42:27.591Z,1013.56
2018-07-31T04:43:27.546Z,1013.55
2018-07-31T04:44:27.530Z,1013.53
2018-07-31T04:45:27.559Z,1013.56
2018-07-31T04:46:27.486Z,1013.55
2018-07-31T04:47:27.466Z,1013.53
2018-07-31T04:48:27.443Z,1013.53
2018-07-31T04:49:27.423Z,1013.56
2018-07-31T04:50:27.463Z,1013.56
2018-07-31T04:51:27.378Z,1013.51
2018-07-31T04:52:27.360Z,1013.51
2018-07-31T04:53:27.350Z,1013.50
2018-07-31T04:54:27.319Z,1013.54
2018-07-31T04:55:27.345Z,1013.54
2018-07-31T04:56:27.321Z,1013.54
2018-07-31T04:57:27.261Z,1013.52
2018-07-31T04:58:27.233Z,1013.50
2018-07-31T04:59:27.212Z,1013.47
2018-07-31T05:00:27.193Z,1013.48
2018-07-31T05:01:27.219Z,1013.51
2018-07-31T05:02:27.151Z,1013.48
2018-07-31T05:03:27.130Z,1013.47
2018-07-31T05:04:27.165Z,1013.44
2018-07-31T05:05:27.092Z,1013.44
2018-07-31T05:06:27.122Z,1013.44
2018-07-31T05:07:27.046Z,1013.50
2018-07-31T05:08:27.025Z,1013.46
2018-07-31T05:09:27.005Z,1013.45
2018-07-31T05:10:26.982Z,1013.44
2018-07-31T05:11:27.008Z,1013.47
2018-07-31T05:12:26.991Z,1013.44
2018-07-31T05:13:27.551Z,1013.47
2018-07-31T05:14:27.555Z,1013.38
2018-07-31T05:15:26.884Z,1013.44
2018-07-31T05:16:26.864Z,1013.39
2018-07-31T05:17:26.899Z,1013.41
2018-07-31T05:18:26.858Z,1013.42
2018-07-31T05:19:26.802Z,1013.37
2018-07-31T05:20:26.782Z,1013.38
2018-07-31T05:21:26.757Z,1013.43
2018-07-31T05:22:26.783Z,1013.44
2018-07-31T05:23:26.719Z,1013.43
2018-07-31T05:24:26.701Z,1013.43
2018-07-31T05:25:26.681Z,1013.45
2018-07-31T05:26:26.662Z,1013.51
2018-07-31T05:27:26.688Z,1013.48
2018-07-31T05:28:26.659Z,1013.48
2018-07-31T05:29:26.599Z,1013.47
2018-07-31T05:30:26.576Z,1013.49
2018-07-31T05:31:26.555Z,1013.47
2018-07-31T05:32:26.604Z,1013.45
2018-07-31T05:33:26.563Z,1013.47
2018-07-31T05:34:26.498Z,1013.52
2018-07-31T05:35:26.482Z,1013.53
2018-07-31T05:36:26.462Z,1013.52
2018-07-31T05:37:26.437Z,1013.53
2018-07-31T05:38:26.468Z,1013.50
2018-07-31T05:39:26.415Z,1013.50
2018-07-31T05:40:26.383Z,1013.53
2018-07-31T05:41:26.361Z,1013.49
2018-07-31T05:42:26.350Z,1013.50
2018-07-31T05:43:26.372Z,1013.50
2018-07-31T05:44:26.308Z,1013.53
2018-07-31T05:45:26.290Z,1013.54
2018-07-31T05:46:26.268Z,1013.53
2018-07-31T05:47:26.253Z,1013.52
2018-07-31T05:48:26.274Z,1013.56
2018-07-31T05:49:26.217Z,1013.54
2018-07-31T05:50:26.187Z,1013.59
2018-07-31T05:51:26.214Z,1013.58
2018-07-31T05:52:26.147Z,1013.55
2018-07-31T05:53:26.128Z,1013.59
2018-07-31T05:54:26.110Z,1013.55
2018-07-31T05:55:26.093Z,1013.56
2018-07-31T05:56:26.115Z,1013.55
2018-07-31T05:57:26.104Z,1013.57
2018-07-31T05:58:26.031Z,1013.56
2018-07-31T05:59:26.024Z,1013.54
2018-07-31T06:00:26.030Z,1013.55
2018-07-31T06:01:26.020Z,1013.55
2018-07-31T06:02:25.948Z,1013.56
2018-07-31T06:03:25.958Z,1013.59
2018-07-31T06:04:25.916Z,1013.59
2018-07-31T06:05:25.899Z,1013.60
2018-07-31T06:06:25.932Z,1013.60
2018-07-31T06:07:25.901Z,1013.58
2018-07-31T06:08:25.838Z,1013.63
2018-07-31T06:09:26.588Z,1013.61
2018-07-31T06:10:25.852Z,1013.60
2018-07-31T06:11:25.848Z,1013.60
2018-07-31T06:12:25.765Z,1013.62
2018-07-31T06:13:25.755Z,1013.60
2018-07-31T06:14:25.726Z,1013.58
2018-07-31T06:15:25.745Z,1013.61
2018-07-31T06:16:25.680Z,1013.60
2018-07-31T06:17:25.704Z,1013.59
2018-07-31T06:18:25.642Z,1013.58
2018-07-31T06:19:25.622Z,1013.62
2018-07-31T06:20:25.609Z,1013.64
2018-07-31T06:21:25.592Z,1013.59
2018-07-31T06:22:25.623Z,1013.64
2018-07-31T06:23:25.552Z,1013.62
2018-07-31T06:24:25.574Z,1013.63
2018-07-31T06:25:25.511Z,1013.63
2018-07-31T06:26:25.492Z,1013.64
2018-07-31T06:27:25.509Z,1013.69
2018-07-31T06:28:25.495Z,1013.66
2018-07-31T06:29:25.430Z,1013.67
2018-07-31T06:30:25.414Z,1013.66
2018-07-31T06:31:25.407Z,1013.66
2018-07-31T06:32:25.370Z,1013.69
2018-07-31T06:33:25.398Z,1013.68
2018-07-31T06:34:25.368Z,1013.67
2018-07-31T06:35:25.316Z,1013.68
2018-07-31T06:36:25.981Z,1013.72
2018-07-31T06:37:25.282Z,1013.71
2018-07-31T06:38:25.306Z,1013.70
2018-07-31T06:39:25.239Z,1013.70
2018-07-31T06:40:25.276Z,1013.68
2018-07-31T06:41:25.200Z,1013.69
2018-07-31T06:42:25.234Z,1013.67
2018-07-31T06:43:25.205Z,1013.69
2018-07-31T06:44:25.160Z,1013.68
2018-07-31T06:45:25.127Z,1013.69
2018-07-31T06:46:25.112Z,1013.68
2018-07-31T06:47:25.138Z,1013.71
2018-07-31T06:48:25.071Z,1013.71
2018-07-31T06:49:25.066Z,1013.71
2018-07-31T06:50:25.040Z,1013.72
2018-07-31T06:51:25.059Z,1013.70
2018-07-31T06:52:24.995Z,1013.67
2018-07-31T06:53:25.050Z,1013.66
2018-07-31T06:54:24.967Z,1013.67
2018-07-31T06:55:24.982Z,1013.64
2018-07-31T06:56:25.135Z,1013.68
2018-07-31T06:57:24.901Z,1013.67
2018-07-31T06:58:24.885Z,1013.66
2018-07-31T06:59:24.867Z,1013.70
2018-07-31T07:00:24.847Z,1013.70
2018-07-31T07:01:24.871Z,1013.69
2018-07-31T07:02:24.813Z,1013.66
2018-07-31T07:03:25.490Z,1013.65
2018-07-31T07:04:24.772Z,1013.64
2018-07-31T07:05:24.797Z,1013.60
2018-07-31T07:06:24.735Z,1013.63
2018-07-31T07:07:24.764Z,1013.62
2018-07-31T07:08:24.697Z,1013.61
2018-07-31T07:09:24.690Z,1013.64
2018-07-31T07:10:24.676Z,1013.65
2018-07-31T07:11:24.662Z,1013.65
2018-07-31T07:12:24.673Z,1013.61
2018-07-31T07:13:24.703Z,1013.69
2018-07-31T07:14:24.595Z,1013.65
2018-07-31T07:15:24.618Z,1013.66
2018-07-31T07:16:24.552Z,1013.65
2018-07-31T07:17:24.588Z,1013.70
2018-07-31T07:18:24.525Z,1013.72
2018-07-31T07:19:24.513Z,1013.72
2018-07-31T07:20:24.523Z,1013.77
2018-07-31T07:21:24.470Z,1013.74
2018-07-31T07:22:24.452Z,1013.76
2018-07-31T07:23:25.092Z,1013.73
2018-07-31T07:24:24.465Z,1013.79
2018-07-31T07:25:24.390Z,1013.77
2018-07-31T07:26:24.377Z,1013.78
2018-07-31T07:27:24.415Z,1013.77
2018-07-31T07:28:24.380Z,1013.76
2018-07-31T07:29:24.321Z,1013.71
2018-07-31T07:30:24.338Z,1013.77
2018-07-31T07:31:24.283Z,1013.77
2018-07-31T07:32:24.308Z,1013.77
2018-07-31T07:33:24.304Z,1013.77
2018-07-31T07:34:24.227Z,1013.79
2018-07-31T07:35:25.094Z,1013.80
2018-07-31T07:36:24.192Z,1013.78
2018-07-31T07:37:24.237Z,1013.80
2018-07-31T07:38:24.175Z,1013.79
2018-07-31T07:39:24.138Z,1013.76
2018-07-31T07:40:24.123Z,1013.79
2018-07-31T07:41:24.106Z,1013.79
2018-07-31T07:42:24.146Z,1013.76
2018-07-31T07:43:24.117Z,1013.79
2018-07-31T07:44:24.050Z,1013.75
2018-07-31T07:45:24.036Z,1013.72
2018-07-31T07:46:24.014Z,1013.74
2018-07-31T07:47:24.049Z,1013.78
2018-07-31T07:48:24.046Z,1013.73
2018-07-31T07:49:23.988Z,1013.74
2018-07-31T07:50:23.964Z,1013.72
2018-07-31T07:51:23.928Z,1013.76
2018-07-31T07:52:23.913Z,1013.74
2018-07-31T07:53:23.963Z,1013.75
2018-07-31T07:54:23.945Z,1013.74
2018-07-31T07:55:23.856Z,1013.74
2018-07-31T07:56:23.841Z,1013.75
2018-07-31T07:57:23.824Z,1013.75
2018-07-31T07:58:23.857Z,1013.73
2018-07-31T07:59:23.843Z,1013.73
2018-07-31T08:00:23.774Z,1013.77
2018-07-31T08:01:23.755Z,1013.74
2018-07-31T08:02:23.736Z,1013.75
2018-07-31T08:03:23.767Z,1013.75
2018-07-31T08:04:23.705Z,1013.74
2018-07-31T08:05:23.688Z,1013.79
2018-07-31T08:06:23.671Z,1013.76
2018-07-31T08:07:23.692Z,1013.75
2018-07-31T08:08:23.644Z,1013.76
2018-07-31T08:09:23.667Z,1013.77
2018-07-31T08:10:23.599Z,1013.78
2018-07-31T08:11:23.588Z,1013.76
2018-07-31T08:12:23.570Z,1013.77
2018-07-31T08:13:23.655Z,1013.76
2018-07-31T08:14:23.572Z,1013.76
2018-07-31T08:15:23.566Z,1013.78
2018-07-31T08:16:23.502Z,1013.78
2018-07-31T08:17:23.483Z,1013.78
2018-07-31T08:18:23.468Z,1013.79
2018-07-31T08:19:23.462Z,1013.82
2018-07-31T08:20:23.493Z,1013.78
2018-07-31T08:21:23.421Z,1013.79
2018-07-31T08:22:23.399Z,1013.84
2018-07-31T08:23:23.431Z,1013.78
2018-07-31T08:24:23.369Z,1013.77
2018-07-31T08:25:23.411Z,1013.78
2018-07-31T08:26:23.329Z,1013.82
2018-07-31T08:27:23.318Z,1013.78
2018-07-31T08:28:23.298Z,1013.77
2018-07-31T08:29:23.282Z,1013.80
2018-07-31T08:30:23.318Z,1013.78
2018-07-31T08:31:23.261Z,1013.78
2018-07-31T08:32:23.230Z,1013.81
2018-07-31T08:33:23.247Z,1013.83
2018-07-31T08:34:23.212Z,1013.84
2018-07-31T08:35:23.248Z,1013.79
2018-07-31T08:36:23.169Z,1013.79
2018-07-31T08:37:23.151Z,1013.75
2018-07-31T08:38:23.131Z,1013.79
2018-07-31T08:39:23.159Z,1013.83
2018-07-31T08:40:23.145Z,1013.77
2018-07-31T08:41:23.143Z,1013.78
2018-07-31T08:42:23.081Z,1013.78
2018-07-31T08:43:23.054Z,1013.77
2018-07-31T08:44:23.034Z,1013.77
2018-07-31T08:45:23.063Z,1013.76
2018-07-31T08:46:23.050Z,1013.74
2018-07-31T08:47:22.985Z,1013.76
2018-07-31T08:48:22.973Z,1013.71
2018-07-31T08:49:22.952Z,1013.77
2018-07-31T08:50:22.940Z,1013.72
2018-07-31T08:51:22.962Z,1013.75
2018-07-31T08:52:22.904Z,1013.72
2018-07-31T08:53:22.891Z,1013.72
2018-07-31T08:54:22.872Z,1013.76
2018-07-31T08:55:22.875Z,1013.78
2018-07-31T08:56:22.882Z,1013.76
2018-07-31T08:57:22.825Z,1013.76
2018-07-31T08:58:22.807Z,1013.75
2018-07-31T08:59:22.792Z,1013.72
2018-07-31T09:00:22.818Z,1013.76
2018-07-31T09:01:22.759Z,1013.70
2018-07-31T09:02:22.755Z,1013.71
2018-07-31T09:03:22.727Z,1013.73
2018-07-31T09:04:22.724Z,1013.74
2018-07-31T09:05:22.738Z,1013.73
2018-07-31T09:06:22.736Z,1013.70
2018-07-31T09:07:22.666Z,1013.71
2018-07-31T09:08:22.710Z,1013.75
2018-07-31T09:09:22.641Z,1013.70
2018-07-31T09:10:22.619Z,1013.79
2018-07-31T09:11:22.651Z,1013.71
2018-07-31T09:12:22.589Z,1013.75
2018-07-31T09:13:22.571Z,1013.71
2018-07-31T09:14:22.554Z,1013.74
2018-07-31T09:15:22.537Z,1013.75
2018-07-31T09:16:22.561Z,1013.71
2018-07-31T09:17:22.539Z,1013.71
2018-07-31T09:18:22.495Z,1013.70
2018-07-31T09:19:22.518Z,1013.68
2018-07-31T09:20:22.507Z,1013.69
2018-07-31T09:21:22.443Z,1013.72
2018-07-31T09:22:22.495Z,1013.66
2018-07-31T09:23:22.415Z,1013.70
2018-07-31T09:24:22.438Z,1013.65
2018-07-31T09:25:22.444Z,1013.63
2018-07-31T09:26:22.367Z,1013.65
2018-07-31T09:27:22.356Z,1013.62
2018-07-31T09:28:22.336Z,1013.65
2018-07-31T09:29:22.369Z,1013.62
2018-07-31T09:30:22.326Z,1013.63
2018-07-31T09:31:22.285Z,1013.66
2018-07-31T09:32:22.280Z,1013.62
2018-07-31T09:33:22.258Z,1013.68
2018-07-31T09:34:22.294Z,1013.65
2018-07-31T09:35:22.222Z,1013.64
2018-07-31T09:36:22.299Z,1013.60
2018-07-31T09:37:22.231Z,1013.60
2018-07-31T09:38:22.195Z,1013.56
2018-07-31T09:39:22.171Z,1013.55
2018-07-31T09:40:22.203Z,1013.59
2018-07-31T09:41:22.183Z,1013.59
2018-07-31T09:42:22.116Z,1013.55
2018-07-31T09:43:22.102Z,1013.56
2018-07-31T09:44:22.133Z,1013.54
2018-07-31T09:45:22.073Z,1013.57
2018-07-31T09:46:22.054Z,1013.53
2018-07-31T09:47:22.039Z,1013.53
2018-07-31T09:48:22.030Z,1013.54
2018-07-31T09:49:22.073Z,1013.48
2018-07-31T09:50:21.995Z,1013.51
2018-07-31T09:51:21.978Z,1013.53
2018-07-31T09:52:21.962Z,1013.51
2018-07-31T09:53:21.947Z,1013.50
2018-07-31T09:54:21.978Z,1013.42
2018-07-31T09:55:21.931Z,1013.46
2018-07-31T09:56:21.904Z,1013.45
2018-07-31T09:57:21.891Z,1013.42
2018-07-31T09:58:21.872Z,1013.42
2018-07-31T09:59:21.907Z,1013.42
2018-07-31T10:00:21.843Z,1013.41
2018-07-31T10:01:21.825Z,1013.37
2018-07-31T10:02:21.832Z,1013.38
2018-07-31T10:03:21.795Z,1013.37
2018-07-31T10:04:21.838Z,1013.36
2018-07-31T10:05:21.820Z,1013.37
2018-07-31T10:06:21.756Z,1013.40
2018-07-31T10:07:21.774Z,1013.38
2018-07-31T10:08:21.719Z,1013.39
2018-07-31T10:09:21.746Z,1013.36
2018-07-31T10:10:21.735Z,1013.34
2018-07-31T10:11:21.675Z,1013.33
2018-07-31T10:12:21.659Z,1013.32
2018-07-31T10:13:21.643Z,1013.28
2018-07-31T10:14:21.628Z,1013.29
2018-07-31T10:15:21.659Z,1013.32
2018-07-31T10:16:21.659Z,1013.28
2018-07-31T10:17:21.584Z,1013.25
2018-07-31T10:18:21.746Z,1013.23
2018-07-31T10:19:21.552Z,1013.23
2018-07-31T10:20:21.541Z,1013.21
2018-07-31T10:21:21.578Z,1013.26
2018-07-31T10:22:21.508Z,1013.19
2018-07-31T10:23:21.496Z,1013.25
2018-07-31T10:24:21.476Z,1013.26
2018-07-31T10:25:21.462Z,1013.19
2018-07-31T10:26:21.511Z,1013.12
2018-07-31T10:27:21.441Z,1013.19
2018-07-31T10:28:21.419Z,1013.22
2018-07-31T10:29:21.406Z,1013.14
2018-07-31T10:30:21.385Z,1013.11
2018-07-31T10:31:21.431Z,1013.18
2018-07-31T10:32:21.362Z,1013.20
2018-07-31T10:33:21.350Z,1013.17
2018-07-31T10:34:21.329Z,1013.18
2018-07-31T10:35:21.314Z,1013.15
2018-07-31T10:36:21.353Z,1013.19
2018-07-31T10:37:21.288Z,1013.16
2018-07-31T10:38:21.310Z,1013.20
2018-07-31T10:39:21.252Z,1013.20
2018-07-31T10:40:21.243Z,1013.18
2018-07-31T10:41:21.268Z,1013.18
2018-07-31T10:42:21.248Z,1013.14
2018-07-31T10:43:21.194Z,1013.18
2018-07-31T10:44:21.183Z,1013.16
2018-07-31T10:45:21.180Z,1013.12
2018-07-31T10:46:21.152Z,1013.15
2018-07-31T10:47:21.182Z,1013.14
2018-07-31T10:48:21.119Z,1013.12
2018-07-31T10:49:21.108Z,1013.17
2018-07-31T10:50:21.092Z,1013.13
2018-07-31T10:51:21.079Z,1013.11
2018-07-31T10:52:21.107Z,1013.15
2018-07-31T10:53:21.050Z,1013.10
2018-07-31T10:54:21.030Z,1013.13
2018-07-31T10:55:21.661Z,1013.15
2018-07-31T10:56:21.067Z,1013.13
2018-07-31T10:57:20.991Z,1013.12
2018-07-31T10:58:21.043Z,1013.12
2018-07-31T10:59:21.001Z,1013.06
2018-07-31T11:00:20.983Z,1013.13
2018-07-31T11:01:20.937Z,1013.14
2018-07-31T11:02:20.974Z,1013.17
2018-07-31T11:03:20.907Z,1013.17
2018-07-31T11:04:20.899Z,1013.19
2018-07-31T11:05:20.877Z,1013.19
2018-07-31T11:06:20.941Z,1013.26
2018-07-31T11:07:20.890Z,1013.20
2018-07-31T11:08:20.881Z,1013.23
2018-07-31T11:09:20.814Z,1013.15
2018-07-31T11:10:20.814Z,1013.16
2018-07-31T11:11:20.795Z,1013.19
2018-07-31T11:12:20.777Z,1013.16
2018-07-31T11:13:20.820Z,1013.20
2018-07-31T11:14:20.744Z,1013.21
2018-07-31T11:15:20.731Z,1013.16
2018-07-31T11:16:20.712Z,1013.15
2018-07-31T11:17:20.705Z,1013.12
2018-07-31T11:18:20.736Z,1013.16
2018-07-31T11:19:20.671Z,1013.11
2018-07-31T11:20:20.656Z,1013.13
2018-07-31T11:21:20.709Z,1013.15
2018-07-31T11:22:20.627Z,1013.16
2018-07-31T11:23:20.664Z,1013.10
2018-07-31T11:24:20.603Z,1013.12
2018-07-31T11:25:20.585Z,1013.13
2018-07-31T11:26:20.570Z,1013.10
2018-07-31T11:27:20.643Z,1013.14
2018-07-31T11:28:20.588Z,1013.06
2018-07-31T11:29:20.530Z,1013.09
2018-07-31T11:30:20.516Z,1013.12
2018-07-31T11:31:20.506Z,1013.13
2018-07-31T11:32:20.498Z,1013.06
2018-07-31T11:33:20.531Z,1013.10
2018-07-31T11:34:20.471Z,1013.03
2018-07-31T11:35:20.443Z,1013.08
2018-07-31T11:36:20.433Z,1013.05
2018-07-31T11:37:20.415Z,1013.06
2018-07-31T11:38:20.448Z,1013.04
2018-07-31T11:39:20.391Z,1013.02
2018-07-31T11:40:20.377Z,1013.07
2018-07-31T11:41:20.431Z,1013.01
2018-07-31T11:42:20.346Z,1013.05
2018-07-31T11:43:20.384Z,1013.02
2018-07-31T11:44:20.321Z,1013.06
2018-07-31T11:45:20.309Z,1013.01
2018-07-31T11:46:20.292Z,1013.01
2018-07-31T11:47:20.329Z,1012.96
2018-07-31T11:48:20.261Z,1012.97
2018-07-31T11:49:20.247Z,1012.92
2018-07-31T11:50:20.234Z,1012.91
2018-07-31T11:51:20.220Z,1012.89
2018-07-31T11:52:20.259Z,1012.90
2018-07-31T11:53:20.192Z,1012.93
2018-07-31T11:54:20.181Z,1012.90
2018-07-31T11:55:20.174Z,1012.94
2018-07-31T11:56:20.152Z,1012.95
2018-07-31T11:57:20.185Z,1012.92
2018-07-31T11:58:20.121Z,1012.89
2018-07-31T11:59:20.109Z,1012.92
2018-07-31T12:00:20.148Z,1012.90
2018-07-31T12:01:20.092Z,1012.92
2018-07-31T12:02:20.067Z,1012.86
2018-07-31T12:03:20.129Z,1012.88
2018-07-31T12:04:20.063Z,1012.85
2018-07-31T12:05:20.029Z,1012.83